createdAt,value
2018-09-14T00:01:46.925Z,31.10
2018-09-14T00:04:18.828Z,31.10
2018-09-14T00:06:50.289Z,31.10
2018-09-14T00:09:21.785Z,31.10
2018-09-14T00:11:53.126Z,31.20
2018-09-14T00:14:24.489Z,31.30
2018-09-14T00:16:55.930Z,31.20
2018-09-14T00:19:27.644Z,31.20
2018-09-14T00:21:58.964Z,31.20
2018-09-14T00:24:31.353Z,31.20
2018-09-14T00:27:03.115Z,31.20
2018-09-14T00:29:34.967Z,31.30
2018-09-14T00:32:08.025Z,31.30
2018-09-14T00:34:39.672Z,31.30
2018-09-14T00:37:11.161Z,31.30
2018-09-14T00:39:42.866Z,31.20
2018-09-14T00:42:14.293Z,31.20
2018-09-14T00:44:46.265Z,31.30
2018-09-14T00:47:17.523Z,31.20
2018-09-14T00:49:49.177Z,31.20
2018-09-14T00:52:20.334Z,31.20
2018-09-14T00:54:52.062Z,31.30
2018-09-14T00:57:23.673Z,31.20
2018-09-14T00:59:55.255Z,31.20
2018-09-14T01:02:26.789Z,31.10
2018-09-14T01:04:58.190Z,31.10
2018-09-14T01:07:29.511Z,31.10
2018-09-14T01:10:01.010Z,31.10
2018-09-14T01:12:32.926Z,31.10
2018-09-14T01:15:05.503Z,31.10
2018-09-14T01:17:36.677Z,31.10
2018-09-14T01:20:09.123Z,31.10
2018-09-14T01:22:40.630Z,31.10
2018-09-14T01:25:12.689Z,31.10
2018-09-14T01:27:44.093Z,31.10
2018-09-14T01:30:16.178Z,31.10
2018-09-14T01:32:48.450Z,31.00
2018-09-14T01:35:24.833Z,31.10
2018-09-14T01:37:56.437Z,31.10
2018-09-14T01:40:28.257Z,31.10
2018-09-14T01:42:59.749Z,31.00
2018-09-14T01:45:31.185Z,31.00
2018-09-14T01:48:02.568Z,31.10
2018-09-14T01:50:34.511Z,31.10
2018-09-14T01:53:05.980Z,31.10
2018-09-14T01:55:37.439Z,31.00
2018-09-14T01:58:08.874Z,31.00
2018-09-14T02:00:40.538Z,31.00
2018-09-14T02:03:11.781Z,31.00
2018-09-14T02:05:43.641Z,30.90
2018-09-14T02:08:14.858Z,30.90
2018-09-14T02:10:46.760Z,31.00
2018-09-14T02:13:18.161Z,31.00
2018-09-14T02:15:49.849Z,31.00
2018-09-14T02:18:21.342Z,30.90
2018-09-14T02:20:52.969Z,30.80
2018-09-14T02:23:24.322Z,30.90
2018-09-14T02:25:56.167Z,30.80
2018-09-14T02:28:27.485Z,30.90
2018-09-14T02:30:59.342Z,30.90
2018-09-14T02:33:32.785Z,30.90
2018-09-14T02:36:05.222Z,30.90
2018-09-14T02:38:36.845Z,30.80
2018-09-14T02:41:08.704Z,30.90
2018-09-14T02:43:40.177Z,30.90
2018-09-14T02:46:11.959Z,30.80
2018-09-14T02:48:43.205Z,30.90
2018-09-14T02:51:14.934Z,30.90
2018-09-14T02:53:46.853Z,31.10
2018-09-14T02:56:18.470Z,31.20
2018-09-14T02:58:50.198Z,31.30
2018-09-14T03:01:21.750Z,31.30
2018-09-14T03:03:52.918Z,31.40
2018-09-14T03:06:24.896Z,31.50
2018-09-14T03:08:56.278Z,31.70
2018-09-14T03:11:29.025Z,31.80
2018-09-14T03:14:00.556Z,31.90
2018-09-14T03:16:32.171Z,31.90
2018-09-14T03:19:04.069Z,32.10
2018-09-14T03:21:35.697Z,32.20
2018-09-14T03:24:07.241Z,32.30
2018-09-14T03:26:38.733Z,32.50
2018-09-14T03:29:10.066Z,32.60
2018-09-14T03:31:41.789Z,32.70
2018-09-14T03:34:14.818Z,32.90
2018-09-14T03:36:46.737Z,33.00
2018-09-14T03:39:18.352Z,33.10
2018-09-14T03:41:50.241Z,33.30
2018-09-14T03:44:21.729Z,33.40
2018-09-14T03:46:53.318Z,33.60
2018-09-14T03:49:24.609Z,33.70
2018-09-14T03:51:56.434Z,33.90
2018-09-14T03:54:27.985Z,33.90
2018-09-14T03:56:59.850Z,34.10
2018-09-14T03:59:31.178Z,34.30
2018-09-14T04:02:02.834Z,34.60
2018-09-14T04:04:34.212Z,34.80
2018-09-14T04:07:05.605Z,34.90
2018-09-14T04:09:36.801Z,35.00
2018-09-14T04:12:08.561Z,35.20
2018-09-14T04:14:40.208Z,35.30
2018-09-14T04:17:12.138Z,35.40
2018-09-14T04:19:43.529Z,34.50
2018-09-14T04:22:15.345Z,33.20
2018-09-14T04:24:46.842Z,32.80
2018-09-14T04:27:18.562Z,32.40
2018-09-14T04:29:49.953Z,32.40
2018-09-14T04:32:21.519Z,32.70
2018-09-14T04:34:54.297Z,33.20
2018-09-14T04:37:29.386Z,33.80
2018-09-14T04:40:02.174Z,34.10
2018-09-14T04:42:36.413Z,34.40
2018-09-14T04:45:07.686Z,34.60
2018-09-14T04:47:39.653Z,35.40
2018-09-14T04:50:11.230Z,36.10
2018-09-14T04:52:42.935Z,38.50
2018-09-14T04:55:13.892Z,40.40
2018-09-14T04:57:45.089Z,41.50
2018-09-14T05:00:16.389Z,42.30
2018-09-14T05:02:48.315Z,42.10
2018-09-14T05:05:19.406Z,41.30
2018-09-14T05:07:50.478Z,40.80
2018-09-14T05:10:21.689Z,40.60
2018-09-14T05:12:53.042Z,40.00
2018-09-14T05:15:24.082Z,40.00
2018-09-14T05:17:55.690Z,39.70
2018-09-14T05:20:26.781Z,40.00
2018-09-14T05:22:58.332Z,40.50
2018-09-14T05:25:29.373Z,41.30
2018-09-14T05:28:00.543Z,41.70
2018-09-14T05:30:31.573Z,42.00
2018-09-14T05:33:02.755Z,42.40
2018-09-14T05:35:35.047Z,42.60
2018-09-14T05:38:06.648Z,42.10
2018-09-14T05:40:37.761Z,42.10
2018-09-14T05:43:09.319Z,41.40
2018-09-14T05:45:40.507Z,41.40
2018-09-14T05:48:11.931Z,41.40
2018-09-14T05:50:43.168Z,40.50
2018-09-14T05:53:14.501Z,40.60
2018-09-14T05:55:45.488Z,40.30
2018-09-14T05:58:16.646Z,40.30
2018-09-14T06:00:47.842Z,40.10
2018-09-14T06:03:19.448Z,40.50
2018-09-14T06:05:51.454Z,40.70
2018-09-14T06:08:23.862Z,40.60
2018-09-14T06:10:54.718Z,40.60
2018-09-14T06:13:26.250Z,41.30
2018-09-14T06:15:57.373Z,42.00
2018-09-14T06:18:29.660Z,42.30
2018-09-14T06:21:00.821Z,42.80
2018-09-14T06:23:32.170Z,43.20
2018-09-14T06:26:03.349Z,43.30
2018-09-14T06:28:34.842Z,43.30
2018-09-14T06:31:08.212Z,42.60
2018-09-14T06:33:39.778Z,42.30
2018-09-14T06:36:12.189Z,41.70
2018-09-14T06:38:43.851Z,41.80
2018-09-14T06:41:14.986Z,41.60
2018-09-14T06:43:48.288Z,41.20
2018-09-14T06:46:19.405Z,40.80
2018-09-14T06:48:52.366Z,40.90
2018-09-14T06:51:24.229Z,40.80
2018-09-14T06:53:55.380Z,40.50
2018-09-14T06:56:26.589Z,40.60
2018-09-14T06:58:57.846Z,40.50
2018-09-14T07:01:29.147Z,40.30
2018-09-14T07:04:00.954Z,40.60
2018-09-14T07:06:32.201Z,40.60
2018-09-14T07:09:03.834Z,40.50
2018-09-14T07:11:34.834Z,40.50
2018-09-14T07:14:06.382Z,40.60
2018-09-14T07:16:37.552Z,40.60
2018-09-14T07:19:08.993Z,40.50
2018-09-14T07:21:40.525Z,40.30
2018-09-14T07:24:12.148Z,40.10
2018-09-14T07:26:43.205Z,40.30
2018-09-14T07:29:14.623Z,40.50
2018-09-14T07:31:45.882Z,40.40
2018-09-14T07:34:17.274Z,40.00
2018-09-14T07:36:49.726Z,40.40
2018-09-14T07:39:21.164Z,40.50
2018-09-14T07:41:52.259Z,40.50
2018-09-14T07:44:23.529Z,40.60
2018-09-14T07:46:55.794Z,40.50
2018-09-14T07:49:31.471Z,40.30
2018-09-14T07:52:02.511Z,40.50
2018-09-14T07:54:33.858Z,40.50
2018-09-14T07:57:06.163Z,40.80
2018-09-14T07:59:37.480Z,41.00
2018-09-14T08:02:08.837Z,41.80
2018-09-14T08:04:40.072Z,42.60
2018-09-14T08:07:11.484Z,43.30
2018-09-14T08:09:43.478Z,43.00
2018-09-14T08:12:14.578Z,43.50
2018-09-14T08:14:47.353Z,43.20
2018-09-14T08:17:18.446Z,42.10
2018-09-14T08:19:49.703Z,41.60
2018-09-14T08:22:20.845Z,41.30
2018-09-14T08:24:52.209Z,41.00
2018-09-14T08:27:23.347Z,40.70
2018-09-14T08:29:54.578Z,40.50
2018-09-14T08:32:25.703Z,40.30
2018-09-14T08:34:57.326Z,40.30
2018-09-14T08:37:29.906Z,40.10
2018-09-14T08:40:01.091Z,40.00
2018-09-14T08:42:32.079Z,40.10
2018-09-14T08:45:04.557Z,39.90
2018-09-14T08:47:35.687Z,39.80
2018-09-14T08:50:07.379Z,39.60
2018-09-14T08:52:38.366Z,39.60
2018-09-14T08:55:09.777Z,39.60
2018-09-14T08:57:40.977Z,39.70
2018-09-14T09:00:12.383Z,39.60
2018-09-14T09:02:43.557Z,39.40
2018-09-14T09:05:14.805Z,39.40
2018-09-14T09:07:45.973Z,39.50
2018-09-14T09:10:17.326Z,39.50
2018-09-14T09:12:49.052Z,39.20
2018-09-14T09:15:20.461Z,39.10
2018-09-14T09:17:51.988Z,39.20
2018-09-14T09:20:23.312Z,39.20
2018-09-14T09:22:54.595Z,39.10
2018-09-14T09:25:26.073Z,39.00
2018-09-14T09:27:57.198Z,38.90
2018-09-14T09:30:28.697Z,39.00
2018-09-14T09:32:59.707Z,38.90
2018-09-14T09:35:30.869Z,38.90
2018-09-14T09:38:04.729Z,38.60
2018-09-14T09:40:36.214Z,38.50
2018-09-14T09:43:07.420Z,38.60
2018-09-14T09:45:38.956Z,38.60
2018-09-14T09:48:10.221Z,38.50
2018-09-14T09:50:41.828Z,38.80
2018-09-14T09:53:13.081Z,38.70
2018-09-14T09:55:44.530Z,38.50
2018-09-14T09:58:16.633Z,38.50
2018-09-14T10:00:52.573Z,38.40
2018-09-14T10:03:28.438Z,38.30
2018-09-14T10:06:04.453Z,38.40
2018-09-14T10:08:35.370Z,38.20
2018-09-14T10:11:06.733Z,38.10
2018-09-14T10:13:37.894Z,38.20
2018-09-14T10:16:09.250Z,38.10
2018-09-14T10:18:40.377Z,37.90
2018-09-14T10:21:12.178Z,37.80
2018-09-14T10:23:43.646Z,37.70
2018-09-14T10:26:15.074Z,37.60
2018-09-14T10:28:46.182Z,37.70
2018-09-14T10:31:17.483Z,37.60
2018-09-14T10:33:48.754Z,37.80
2018-09-14T10:36:21.221Z,37.80
2018-09-14T10:38:53.404Z,37.70
2018-09-14T10:41:24.881Z,37.60
2018-09-14T10:43:55.972Z,37.60
2018-09-14T10:46:27.663Z,37.60
2018-09-14T10:48:59.303Z,37.60
2018-09-14T10:51:30.917Z,37.50
2018-09-14T10:54:02.154Z,37.60
2018-09-14T10:56:33.821Z,37.50
2018-09-14T10:59:05.790Z,37.50
2018-09-14T11:01:37.498Z,37.30
2018-09-14T11:04:08.954Z,37.40
2018-09-14T11:06:40.784Z,37.30
2018-09-14T11:09:13.953Z,37.20
2018-09-14T11:11:45.782Z,37.20
2018-09-14T11:14:16.992Z,37.10
2018-09-14T11:16:48.778Z,37.00
2018-09-14T11:19:19.949Z,36.90
2018-09-14T11:21:51.866Z,37.00
2018-09-14T11:24:23.338Z,36.90
2018-09-14T11:26:55.102Z,37.00
2018-09-14T11:29:26.672Z,37.10
2018-09-14T11:31:58.630Z,37.00
2018-09-14T11:34:29.994Z,37.00
2018-09-14T11:37:01.701Z,37.00
2018-09-14T11:39:35.260Z,37.00
2018-09-14T11:42:07.154Z,37.00
2018-09-14T11:44:38.405Z,36.90
2018-09-14T11:47:11.717Z,36.90
2018-09-14T11:49:42.771Z,36.90
2018-09-14T11:52:14.734Z,36.80
2018-09-14T11:54:46.032Z,36.90
2018-09-14T11:57:18.048Z,36.90
2018-09-14T11:59:49.422Z,36.80
2018-09-14T12:02:24.289Z,36.70
2018-09-14T12:04:56.556Z,36.60
2018-09-14T12:07:28.511Z,36.70
2018-09-14T12:10:00.326Z,36.70
2018-09-14T12:12:31.966Z,36.60
2018-09-14T12:15:03.407Z,36.70
2018-09-14T12:17:35.373Z,36.70
2018-09-14T12:20:06.893Z,36.80
2018-09-14T12:22:38.430Z,36.80
2018-09-14T12:25:09.831Z,36.90
2018-09-14T12:27:41.102Z,36.80
2018-09-14T12:30:12.541Z,36.80
2018-09-14T12:32:44.329Z,36.80
2018-09-14T12:35:15.738Z,36.80
2018-09-14T12:37:47.304Z,36.80
2018-09-14T12:40:19.615Z,36.60
2018-09-14T12:42:51.223Z,36.70
2018-09-14T12:45:22.822Z,36.60
2018-09-14T12:47:54.441Z,36.60
2018-09-14T12:50:25.788Z,36.60
2018-09-14T12:52:57.891Z,36.50
2018-09-14T12:55:29.418Z,36.50
2018-09-14T12:58:00.931Z,36.50
2018-09-14T13:00:32.261Z,36.50
2018-09-14T13:03:04.673Z,36.50
2018-09-14T13:05:36.177Z,36.40
2018-09-14T13:08:07.896Z,36.40
2018-09-14T13:10:39.290Z,36.30
2018-09-14T13:13:10.799Z,36.10
2018-09-14T13:15:42.434Z,36.20
2018-09-14T13:18:13.909Z,36.20
2018-09-14T13:20:45.225Z,36.20
2018-09-14T13:23:16.848Z,36.10
2018-09-14T13:25:48.309Z,36.20
2018-09-14T13:28:20.242Z,36.10
2018-09-14T13:30:51.374Z,36.00
2018-09-14T13:33:22.944Z,36.00
2018-09-14T13:35:53.848Z,35.90
2018-09-14T13:38:25.025Z,35.90
2018-09-14T13:40:57.156Z,35.80
2018-09-14T13:43:28.429Z,35.80
2018-09-14T13:45:59.720Z,35.80
2018-09-14T13:48:31.121Z,35.70
2018-09-14T13:51:03.074Z,35.60
2018-09-14T13:59:16.201Z,35.60
2018-09-14T14:01:47.162Z,35.40
2018-09-14T14:04:18.645Z,35.40
2018-09-14T14:06:49.460Z,35.40
2018-09-14T14:09:21.162Z,35.30
2018-09-14T14:11:51.930Z,35.30
2018-09-14T14:14:22.985Z,35.20
2018-09-14T14:16:53.970Z,35.10
2018-09-14T14:19:25.713Z,35.10
2018-09-14T14:21:56.777Z,35.10
2018-09-14T14:24:28.970Z,35.00
2018-09-14T14:27:00.113Z,35.00
2018-09-14T14:29:32.229Z,35.00
2018-09-14T14:32:03.876Z,35.00
2018-09-14T14:34:35.422Z,34.90
2018-09-14T14:37:06.584Z,34.90
2018-09-14T14:39:39.143Z,34.80
2018-09-14T14:42:11.065Z,34.80
2018-09-14T14:44:42.777Z,34.80
2018-09-14T14:47:13.886Z,34.80
2018-09-14T14:49:45.206Z,34.80
2018-09-14T14:52:16.276Z,34.60
2018-09-14T14:54:47.774Z,34.60
2018-09-14T14:57:18.868Z,34.60
2018-09-14T14:59:50.226Z,34.60
2018-09-14T15:02:21.366Z,34.50
2018-09-14T15:04:52.551Z,34.60
2018-09-14T15:07:23.662Z,34.60
2018-09-14T15:09:55.053Z,34.60
2018-09-14T15:12:26.233Z,34.50
2018-09-14T15:14:57.489Z,34.50
2018-09-14T15:17:28.550Z,34.50
2018-09-14T15:19:59.753Z,34.50
2018-09-14T15:22:30.895Z,34.40
2018-09-14T15:25:02.036Z,34.50
2018-09-14T15:27:33.205Z,34.50
2018-09-14T15:30:04.774Z,34.50
2018-09-14T15:32:36.014Z,34.40
2018-09-14T15:35:07.337Z,34.30
2018-09-14T15:37:38.414Z,34.40
2018-09-14T15:40:09.741Z,34.40
2018-09-14T15:42:42.042Z,34.30
2018-09-14T15:45:14.049Z,34.30
2018-09-14T15:47:45.106Z,34.30
2018-09-14T15:50:17.262Z,34.30
2018-09-14T15:52:48.417Z,34.20
2018-09-14T15:55:19.948Z,34.20
2018-09-14T15:57:52.014Z,34.20
2018-09-14T16:00:23.831Z,34.20
2018-09-14T16:02:55.140Z,34.20
2018-09-14T16:05:26.647Z,34.20
2018-09-14T16:07:57.922Z,34.20
2018-09-14T16:10:29.155Z,34.20
2018-09-14T16:13:00.489Z,34.20
2018-09-14T16:15:31.802Z,34.20
2018-09-14T16:18:04.500Z,34.10
2018-09-14T16:20:35.714Z,34.10
2018-09-14T16:23:07.535Z,34.10
2018-09-14T16:25:39.009Z,34.10
2018-09-14T16:28:10.110Z,34.20
2018-09-14T16:30:41.582Z,34.10
2018-09-14T16:33:13.542Z,34.10
2018-09-14T16:35:44.748Z,34.10
2018-09-14T16:38:15.509Z,34.20
2018-09-14T16:40:46.668Z,34.20
2018-09-14T16:43:18.269Z,34.10
2018-09-14T16:45:49.310Z,34.20
2018-09-14T16:48:20.167Z,34.10
2018-09-14T16:50:51.176Z,34.10
2018-09-14T16:53:22.036Z,34.10
2018-09-14T16:55:53.134Z,34.10
2018-09-14T16:58:24.317Z,34.00
2018-09-14T17:00:55.861Z,34.00
2018-09-14T17:03:27.004Z,34.00
2018-09-14T17:05:58.428Z,34.00
2018-09-14T17:08:29.449Z,34.00
2018-09-14T17:11:01.867Z,34.00
2018-09-14T17:13:32.898Z,33.90
2018-09-14T17:16:04.213Z,34.00
2018-09-14T17:18:38.594Z,34.00
2018-09-14T17:21:10.061Z,34.00
2018-09-14T17:23:41.162Z,34.00
2018-09-14T17:26:12.618Z,34.00
2018-09-14T17:28:44.277Z,34.00
2018-09-14T17:31:15.902Z,34.00
2018-09-14T17:33:47.782Z,34.00
2018-09-14T17:36:19.462Z,33.90
2018-09-14T17:38:50.998Z,33.90
2018-09-14T17:41:22.676Z,33.90
2018-09-14T17:43:55.450Z,33.90
2018-09-14T17:46:27.091Z,33.80
2018-09-14T17:48:58.952Z,33.90
2018-09-14T17:51:31.190Z,33.80
2018-09-14T17:54:02.555Z,33.80
2018-09-14T17:56:34.491Z,33.80
2018-09-14T17:59:05.727Z,33.80
2018-09-14T18:01:37.977Z,33.80
2018-09-14T18:04:09.501Z,33.80
2018-09-14T18:06:41.148Z,33.80
2018-09-14T18:09:13.814Z,33.80
2018-09-14T18:11:45.205Z,33.80
2018-09-14T18:14:17.261Z,33.70
2018-09-14T18:16:49.215Z,33.70
2018-09-14T18:19:20.685Z,33.70
2018-09-14T18:21:52.510Z,33.70
2018-09-14T18:24:23.938Z,33.70
2018-09-14T18:26:55.575Z,33.70
2018-09-14T18:29:27.393Z,33.70
2018-09-14T18:31:59.042Z,33.70
2018-09-14T18:34:30.451Z,33.70
2018-09-14T18:37:02.177Z,33.70
2018-09-14T18:39:33.610Z,33.70
2018-09-14T18:42:05.741Z,33.60
2018-09-14T18:44:38.344Z,33.60
2018-09-14T18:47:10.132Z,33.60
2018-09-14T18:49:41.566Z,33.60
2018-09-14T18:52:13.151Z,33.60
2018-09-14T18:54:44.382Z,33.60
2018-09-14T18:57:15.597Z,33.50
2018-09-14T18:59:47.006Z,33.50
2018-09-14T19:02:18.913Z,33.50
2018-09-14T19:04:50.213Z,33.50
2018-09-14T19:07:21.793Z,33.50
2018-09-14T19:09:53.008Z,33.50
2018-09-14T19:12:25.069Z,33.50
2018-09-14T19:14:56.529Z,33.40
2018-09-14T19:17:28.323Z,33.40
2018-09-14T19:19:59.573Z,33.40
2018-09-14T19:22:31.309Z,33.40
2018-09-14T19:25:03.024Z,33.30
2018-09-14T19:27:35.034Z,33.30
2018-09-14T19:30:06.325Z,33.30
2018-09-14T19:32:38.181Z,33.30
2018-09-14T19:35:09.744Z,33.30
2018-09-14T19:37:41.104Z,33.30
2018-09-14T19:40:12.605Z,33.30
2018-09-14T19:42:44.197Z,33.30
2018-09-14T19:45:16.672Z,33.30
2018-09-14T19:47:48.413Z,33.20
2018-09-14T19:50:19.882Z,33.30
2018-09-14T19:52:51.509Z,33.20
2018-09-14T19:55:22.856Z,33.20
2018-09-14T19:57:54.557Z,33.20
2018-09-14T20:00:26.106Z,33.20
2018-09-14T20:02:57.725Z,33.20
2018-09-14T20:05:29.143Z,33.20
2018-09-14T20:08:01.505Z,33.10
2018-09-14T20:10:33.009Z,33.10
2018-09-14T20:13:04.797Z,33.10
2018-09-14T20:15:36.179Z,33.10
2018-09-14T20:18:08.166Z,33.10
2018-09-14T20:20:39.410Z,33.10
2018-09-14T20:23:11.198Z,33.10
2018-09-14T20:25:42.881Z,33.10
2018-09-14T20:28:14.994Z,33.10
2018-09-14T20:30:46.157Z,33.00
2018-09-14T20:33:17.964Z,33.00
2018-09-14T20:35:49.441Z,33.00
2018-09-14T20:38:21.122Z,33.00
2018-09-14T20:40:52.565Z,32.90
2018-09-14T20:43:24.256Z,33.00
2018-09-14T20:45:57.029Z,32.90
2018-09-14T20:48:28.777Z,33.00
2018-09-14T20:51:00.527Z,32.90
2018-09-14T20:53:32.675Z,32.90
2018-09-14T20:56:04.056Z,32.90
2018-09-14T20:58:35.811Z,32.90
2018-09-14T21:01:07.335Z,32.90
2018-09-14T21:03:39.165Z,32.90
2018-09-14T21:06:10.599Z,32.90
2018-09-14T21:08:42.213Z,32.90
2018-09-14T21:11:13.645Z,32.90
2018-09-14T21:13:45.870Z,32.90
2018-09-14T21:16:17.419Z,32.90
2018-09-14T21:18:49.014Z,32.90
2018-09-14T21:21:20.469Z,32.80
2018-09-14T21:23:52.083Z,32.80
2018-09-14T21:26:23.907Z,32.80
2018-09-14T21:28:55.875Z,32.90
2018-09-14T21:31:27.328Z,32.80
2018-09-14T21:33:59.120Z,32.90
2018-09-14T21:36:30.460Z,32.80
2018-09-14T21:39:02.123Z,32.90
2018-09-14T21:41:33.341Z,32.80
2018-09-14T21:44:05.150Z,32.80
2018-09-14T21:46:38.117Z,32.80
2018-09-14T21:49:10.116Z,32.70
2018-09-14T21:51:41.481Z,32.80
2018-09-14T21:54:13.212Z,32.80
2018-09-14T21:56:44.422Z,32.70
2018-09-14T21:59:16.410Z,32.70
2018-09-14T22:01:47.953Z,32.70
2018-09-14T22:04:19.510Z,32.70
2018-09-14T22:06:50.715Z,32.70
2018-09-14T22:09:22.330Z,32.70
2018-09-14T22:11:53.636Z,32.70
2018-09-14T22:14:25.397Z,32.70
2018-09-14T22:16:56.811Z,32.70
2018-09-14T22:19:28.479Z,32.70
2018-09-14T22:22:00.074Z,32.70
2018-09-14T22:24:31.865Z,32.70
2018-09-14T22:27:04.510Z,32.70
2018-09-14T22:29:35.993Z,32.70
2018-09-14T22:32:07.407Z,32.70
2018-09-14T22:34:39.172Z,32.70
2018-09-14T22:37:10.341Z,32.60
2018-09-14T22:39:41.959Z,32.60
2018-09-14T22:42:13.319Z,32.60
2018-09-14T22:44:44.897Z,32.60
2018-09-14T22:47:17.495Z,32.50
2018-09-14T22:49:49.340Z,32.50
2018-09-14T22:52:20.751Z,32.50
2018-09-14T22:54:52.481Z,32.40
2018-09-14T22:57:23.879Z,32.50
2018-09-14T22:59:55.534Z,32.40
2018-09-14T23:02:26.956Z,32.50
2018-09-14T23:04:58.747Z,32.50
2018-09-14T23:07:30.394Z,32.40
2018-09-14T23:10:02.025Z,32.40
2018-09-14T23:12:33.397Z,32.50
2018-09-14T23:15:05.178Z,32.50
2018-09-14T23:17:36.922Z,32.50
2018-09-14T23:20:08.544Z,32.50
2018-09-14T23:22:40.035Z,32.40
2018-09-14T23:25:11.652Z,32.40
2018-09-14T23:27:43.031Z,32.40
2018-09-14T23:30:14.600Z,32.40
2018-09-14T23:32:45.777Z,32.40
2018-09-14T23:35:17.165Z,32.40
2018-09-14T23:37:48.520Z,32.40
2018-09-14T23:40:19.931Z,32.40
2018-09-14T23:42:51.317Z,32.40
2018-09-14T23:45:22.794Z,32.40
2018-09-14T23:47:55.521Z,32.40
2018-09-14T23:50:26.966Z,32.40
2018-09-14T23:52:58.357Z,32.40
2018-09-14T23:55:30.337Z,32.40
2018-09-14T23:58:01.882Z,32.30
